sensor_id;sensor_type;location;lat;lon;timestamp;P1;durP1;ratioP1;P2;durP2;ratioP2
45326;SDS011;31062;49.678;24.560;2022-08-03T00:00:47;4.32;;;2.00;;
45326;SDS011;31062;49.678;24.560;2022-08-03T00:03:32;3.65;;;2.15;;
45326;SDS011;31062;49.678;24.560;2022-08-03T00:06:18;1.77;;;1.67;;
45326;SDS011;31062;49.678;24.560;2022-08-03T00:09:04;4.40;;;2.08;;
45326;SDS011;31062;49.678;24.560;2022-08-03T00:11:49;2.33;;;2.13;;
45326;SDS011;31062;49.678;24.560;2022-08-03T00:14:35;2.40;;;2.00;;
45326;SDS011;31062;49.678;24.560;2022-08-03T00:17:21;4.13;;;1.80;;
45326;SDS011;31062;49.678;24.560;2022-08-03T00:20:07;2.28;;;1.98;;
45326;SDS011;31062;49.678;24.560;2022-08-03T00:22:53;6.63;;;2.25;;
45326;SDS011;31062;49.678;24.560;2022-08-03T00:25:38;9.95;;;2.00;;
45326;SDS011;31062;49.678;24.560;2022-08-03T00:28:24;5.03;;;2.05;;
45326;SDS011;31062;49.678;24.560;2022-08-03T00:31:10;4.10;;;2.10;;
45326;SDS011;31062;49.678;24.560;2022-08-03T00:33:57;4.70;;;1.85;;
45326;SDS011;31062;49.678;24.560;2022-08-03T00:36:48;3.85;;;2.05;;
45326;SDS011;31062;49.678;24.560;2022-08-03T00:39:33;9.68;;;2.55;;
45326;SDS011;31062;49.678;24.560;2022-08-03T00:42:19;2.97;;;2.30;;
45326;SDS011;31062;49.678;24.560;2022-08-03T00:45:04;2.30;;;2.10;;
45326;SDS011;31062;49.678;24.560;2022-08-03T00:47:51;3.55;;;2.20;;
45326;SDS011;31062;49.678;24.560;2022-08-03T00:50:40;4.95;;;1.90;;
45326;SDS011;31062;49.678;24.560;2022-08-03T00:53:27;2.80;;;2.13;;
45326;SDS011;31062;49.678;24.560;2022-08-03T00:56:14;3.55;;;2.40;;
45326;SDS011;31062;49.678;24.560;2022-08-03T00:58:59;3.88;;;2.30;;
45326;SDS011;31062;49.678;24.560;2022-08-03T01:01:47;2.28;;;2.05;;
45326;SDS011;31062;49.678;24.560;2022-08-03T01:04:33;6.55;;;2.17;;
45326;SDS011;31062;49.678;24.560;2022-08-03T01:10:37;4.78;;;1.90;;
45326;SDS011;31062;49.678;24.560;2022-08-03T01:13:33;7.43;;;2.30;;
45326;SDS011;31062;49.678;24.560;2022-08-03T01:20:03;5.80;;;1.85;;
45326;SDS011;31062;49.678;24.560;2022-08-03T01:26:20;1.70;;;1.60;;
45326;SDS011;31062;49.678;24.560;2022-08-03T01:32:54;5.25;;;1.95;;
45326;SDS011;31062;49.678;24.560;2022-08-03T01:35:56;1.98;;;1.88;;
45326;SDS011;31062;49.678;24.560;2022-08-03T01:38:46;4.55;;;1.92;;
45326;SDS011;31062;49.678;24.560;2022-08-03T01:41:38;2.33;;;2.10;;
45326;SDS011;31062;49.678;24.560;2022-08-03T01:44:28;2.13;;;1.67;;
45326;SDS011;31062;49.678;24.560;2022-08-03T01:47:18;3.17;;;1.83;;
45326;SDS011;31062;49.678;24.560;2022-08-03T01:50:06;3.20;;;1.63;;
45326;SDS011;31062;49.678;24.560;2022-08-03T01:52:53;6.47;;;2.40;;
45326;SDS011;31062;49.678;24.560;2022-08-03T01:55:40;5.40;;;1.80;;
45326;SDS011;31062;49.678;24.560;2022-08-03T01:58:28;6.97;;;2.83;;
45326;SDS011;31062;49.678;24.560;2022-08-03T02:01:16;1.60;;;1.50;;
45326;SDS011;31062;49.678;24.560;2022-08-03T02:04:04;3.15;;;1.75;;
45326;SDS011;31062;49.678;24.560;2022-08-03T02:06:52;5.07;;;1.88;;
45326;SDS011;31062;49.678;24.560;2022-08-03T02:09:50;1.90;;;1.80;;
45326;SDS011;31062;49.678;24.560;2022-08-03T02:12:38;4.75;;;2.08;;
45326;SDS011;31062;49.678;24.560;2022-08-03T02:15:30;4.30;;;1.73;;
45326;SDS011;31062;49.678;24.560;2022-08-03T02:18:18;4.45;;;1.55;;
45326;SDS011;31062;49.678;24.560;2022-08-03T02:21:05;4.18;;;2.00;;
45326;SDS011;31062;49.678;24.560;2022-08-03T02:23:55;1.73;;;1.63;;
45326;SDS011;31062;49.678;24.560;2022-08-03T02:26:40;5.53;;;1.90;;
45326;SDS011;31062;49.678;24.560;2022-08-03T02:29:29;2.10;;;1.92;;
45326;SDS011;31062;49.678;24.560;2022-08-03T02:32:28;2.75;;;1.83;;
45326;SDS011;31062;49.678;24.560;2022-08-03T02:35:15;2.53;;;1.77;;
45326;SDS011;31062;49.678;24.560;2022-08-03T02:38:06;3.55;;;1.75;;
45326;SDS011;31062;49.678;24.560;2022-08-03T02:40:54;4.25;;;1.92;;
45326;SDS011;31062;49.678;24.560;2022-08-03T02:43:42;2.17;;;1.50;;
45326;SDS011;31062;49.678;24.560;2022-08-03T02:46:52;3.03;;;1.80;;
45326;SDS011;31062;49.678;24.560;2022-08-03T02:49:41;2.38;;;2.17;;
45326;SDS011;31062;49.678;24.560;2022-08-03T02:52:36;2.13;;;1.90;;
45326;SDS011;31062;49.678;24.560;2022-08-03T02:55:22;3.65;;;2.05;;
45326;SDS011;31062;49.678;24.560;2022-08-03T02:58:10;5.35;;;1.80;;
45326;SDS011;31062;49.678;24.560;2022-08-03T03:00:58;2.70;;;1.85;;
45326;SDS011;31062;49.678;24.560;2022-08-03T03:03:45;4.25;;;1.83;;
45326;SDS011;31062;49.678;24.560;2022-08-03T03:06:33;3.95;;;2.80;;
45326;SDS011;31062;49.678;24.560;2022-08-03T03:09:21;2.30;;;2.17;;
45326;SDS011;31062;49.678;24.560;2022-08-03T03:12:12;5.53;;;2.00;;
45326;SDS011;31062;49.678;24.560;2022-08-03T03:15:01;3.65;;;1.60;;
45326;SDS011;31062;49.678;24.560;2022-08-03T03:17:48;3.25;;;1.40;;
45326;SDS011;31062;49.678;24.560;2022-08-03T03:20:38;2.20;;;1.80;;
45326;SDS011;31062;49.678;24.560;2022-08-03T03:23:25;4.03;;;1.65;;
45326;SDS011;31062;49.678;24.560;2022-08-03T03:26:13;5.72;;;2.08;;
45326;SDS011;31062;49.678;24.560;2022-08-03T03:29:00;5.55;;;2.05;;
45326;SDS011;31062;49.678;24.560;2022-08-03T03:31:47;1.67;;;1.58;;
45326;SDS011;31062;49.678;24.560;2022-08-03T03:34:32;4.15;;;2.13;;
45326;SDS011;31062;49.678;24.560;2022-08-03T03:37:18;6.65;;;2.33;;
45326;SDS011;31062;49.678;24.560;2022-08-03T03:40:05;1.98;;;1.75;;
45326;SDS011;31062;49.678;24.560;2022-08-03T03:42:52;2.85;;;1.67;;
45326;SDS011;31062;49.678;24.560;2022-08-03T03:45:42;3.05;;;2.10;;
45326;SDS011;31062;49.678;24.560;2022-08-03T03:48:32;4.60;;;3.15;;
45326;SDS011;31062;49.678;24.560;2022-08-03T03:51:20;5.32;;;2.15;;
45326;SDS011;31062;49.678;24.560;2022-08-03T03:54:06;2.55;;;1.60;;
45326;SDS011;31062;49.678;24.560;2022-08-03T03:56:53;2.63;;;2.13;;
45326;SDS011;31062;49.678;24.560;2022-08-03T03:59:40;3.75;;;2.60;;
45326;SDS011;31062;49.678;24.560;2022-08-03T04:02:26;3.30;;;2.13;;
45326;SDS011;31062;49.678;24.560;2022-08-03T04:05:13;3.75;;;2.20;;
45326;SDS011;31062;49.678;24.560;2022-08-03T04:08:18;3.13;;;1.90;;
45326;SDS011;31062;49.678;24.560;2022-08-03T04:11:27;3.22;;;2.72;;
45326;SDS011;31062;49.678;24.560;2022-08-03T04:17:04;3.40;;;1.92;;
45326;SDS011;31062;49.678;24.560;2022-08-03T04:19:53;5.95;;;2.08;;
45326;SDS011;31062;49.678;24.560;2022-08-03T04:22:41;5.63;;;2.00;;
45326;SDS011;31062;49.678;24.560;2022-08-03T04:25:28;3.88;;;2.55;;
45326;SDS011;31062;49.678;24.560;2022-08-03T04:28:17;4.90;;;2.75;;
45326;SDS011;31062;49.678;24.560;2022-08-03T04:31:16;7.45;;;2.20;;
45326;SDS011;31062;49.678;24.560;2022-08-03T04:34:05;7.53;;;3.08;;
45326;SDS011;31062;49.678;24.560;2022-08-03T04:36:52;3.25;;;2.15;;
45326;SDS011;31062;49.678;24.560;2022-08-03T04:39:42;9.73;;;2.28;;
45326;SDS011;31062;49.678;24.560;2022-08-03T04:42:28;7.40;;;2.28;;
45326;SDS011;31062;49.678;24.560;2022-08-03T04:45:17;2.50;;;2.13;;
45326;SDS011;31062;49.678;24.560;2022-08-03T04:48:05;2.30;;;2.10;;
45326;SDS011;31062;49.678;24.560;2022-08-03T04:50:52;5.28;;;2.03;;
45326;SDS011;31062;49.678;24.560;2022-08-03T04:53:38;4.25;;;2.22;;
45326;SDS011;31062;49.678;24.560;2022-08-03T04:56:24;2.40;;;2.20;;
45326;SDS011;31062;49.678;24.560;2022-08-03T04:59:10;5.05;;;2.72;;
45326;SDS011;31062;49.678;24.560;2022-08-03T05:01:56;3.63;;;2.30;;
45326;SDS011;31062;49.678;24.560;2022-08-03T05:04:42;5.78;;;2.38;;
45326;SDS011;31062;49.678;24.560;2022-08-03T05:07:30;11.70;;;2.88;;
45326;SDS011;31062;49.678;24.560;2022-08-03T05:10:20;3.45;;;2.75;;
45326;SDS011;31062;49.678;24.560;2022-08-03T05:13:06;4.90;;;2.45;;
45326;SDS011;31062;49.678;24.560;2022-08-03T05:15:56;4.38;;;2.13;;
45326;SDS011;31062;49.678;24.560;2022-08-03T05:18:42;2.88;;;2.42;;
45326;SDS011;31062;49.678;24.560;2022-08-03T05:21:28;3.00;;;2.45;;
45326;SDS011;31062;49.678;24.560;2022-08-03T05:24:35;2.90;;;2.10;;
45326;SDS011;31062;49.678;24.560;2022-08-03T05:27:21;2.35;;;2.15;;
45326;SDS011;31062;49.678;24.560;2022-08-03T05:30:06;2.97;;;2.58;;
45326;SDS011;31062;49.678;24.560;2022-08-03T05:33:13;5.10;;;2.80;;
45326;SDS011;31062;49.678;24.560;2022-08-03T05:35:59;5.18;;;2.35;;
45326;SDS011;31062;49.678;24.560;2022-08-03T05:38:48;2.50;;;2.00;;
45326;SDS011;31062;49.678;24.560;2022-08-03T05:41:34;2.47;;;2.10;;
45326;SDS011;31062;49.678;24.560;2022-08-03T05:44:21;2.55;;;2.15;;
45326;SDS011;31062;49.678;24.560;2022-08-03T05:47:09;7.60;;;2.13;;
45326;SDS011;31062;49.678;24.560;2022-08-03T05:49:55;3.58;;;1.95;;
45326;SDS011;31062;49.678;24.560;2022-08-03T05:52:43;2.10;;;1.90;;
45326;SDS011;31062;49.678;24.560;2022-08-03T05:55:30;2.53;;;2.33;;
45326;SDS011;31062;49.678;24.560;2022-08-03T05:58:16;3.00;;;1.90;;
45326;SDS011;31062;49.678;24.560;2022-08-03T06:01:03;3.13;;;2.35;;
45326;SDS011;31062;49.678;24.560;2022-08-03T06:03:50;2.17;;;1.95;;
45326;SDS011;31062;49.678;24.560;2022-08-03T06:06:36;3.53;;;2.08;;
45326;SDS011;31062;49.678;24.560;2022-08-03T06:09:22;4.30;;;2.28;;
45326;SDS011;31062;49.678;24.560;2022-08-03T06:12:28;5.40;;;2.42;;
45326;SDS011;31062;49.678;24.560;2022-08-03T06:15:16;1.98;;;1.77;;
45326;SDS011;31062;49.678;24.560;2022-08-03T06:18:03;2.13;;;1.65;;
45326;SDS011;31062;49.678;24.560;2022-08-03T06:20:48;2.58;;;2.08;;
45326;SDS011;31062;49.678;24.560;2022-08-03T06:23:36;1.65;;;1.55;;
45326;SDS011;31062;49.678;24.560;2022-08-03T06:26:40;1.70;;;1.60;;
45326;SDS011;31062;49.678;24.560;2022-08-03T06:29:25;2.15;;;1.70;;
45326;SDS011;31062;49.678;24.560;2022-08-03T06:32:11;1.85;;;1.70;;
45326;SDS011;31062;49.678;24.560;2022-08-03T06:34:59;4.05;;;1.63;;
45326;SDS011;31062;49.678;24.560;2022-08-03T06:37:45;2.47;;;1.92;;
45326;SDS011;31062;49.678;24.560;2022-08-03T06:40:34;2.63;;;1.75;;
45326;SDS011;31062;49.678;24.560;2022-08-03T06:43:24;2.10;;;1.52;;
45326;SDS011;31062;49.678;24.560;2022-08-03T06:46:10;1.35;;;1.25;;
45326;SDS011;31062;49.678;24.560;2022-08-03T06:48:55;4.15;;;1.60;;
45326;SDS011;31062;49.678;24.560;2022-08-03T06:51:41;1.45;;;1.08;;
45326;SDS011;31062;49.678;24.560;2022-08-03T06:54:46;3.45;;;1.20;;
45326;SDS011;31062;49.678;24.560;2022-08-03T06:57:32;1.27;;;1.20;;
45326;SDS011;31062;49.678;24.560;2022-08-03T07:00:18;3.40;;;0.90;;
45326;SDS011;31062;49.678;24.560;2022-08-03T07:03:04;2.38;;;1.40;;
45326;SDS011;31062;49.678;24.560;2022-08-03T07:05:49;2.33;;;1.48;;
45326;SDS011;31062;49.678;24.560;2022-08-03T07:08:35;1.20;;;1.10;;
45326;SDS011;31062;49.678;24.560;2022-08-03T07:11:21;1.45;;;1.20;;
45326;SDS011;31062;49.678;24.560;2022-08-03T07:14:07;1.50;;;1.40;;
45326;SDS011;31062;49.678;24.560;2022-08-03T07:16:52;1.20;;;1.10;;
45326;SDS011;31062;49.678;24.560;2022-08-03T07:19:38;6.55;;;1.90;;
45326;SDS011;31062;49.678;24.560;2022-08-03T07:22:24;6.78;;;1.88;;
45326;SDS011;31062;49.678;24.560;2022-08-03T07:25:11;3.90;;;1.67;;
45326;SDS011;31062;49.678;24.560;2022-08-03T07:27:58;1.50;;;1.40;;
45326;SDS011;31062;49.678;24.560;2022-08-03T07:30:44;3.85;;;1.67;;
45326;SDS011;31062;49.678;24.560;2022-08-03T07:33:30;1.55;;;1.45;;
45326;SDS011;31062;49.678;24.560;2022-08-03T07:36:18;1.52;;;1.42;;
45326;SDS011;31062;49.678;24.560;2022-08-03T07:39:04;1.83;;;1.73;;
45326;SDS011;31062;49.678;24.560;2022-08-03T07:42:02;1.98;;;1.38;;
45326;SDS011;31062;49.678;24.560;2022-08-03T07:44:48;1.52;;;1.27;;
45326;SDS011;31062;49.678;24.560;2022-08-03T07:47:34;3.65;;;1.27;;
45326;SDS011;31062;49.678;24.560;2022-08-03T07:50:21;3.17;;;1.48;;
45326;SDS011;31062;49.678;24.560;2022-08-03T07:53:07;1.85;;;1.20;;
45326;SDS011;31062;49.678;24.560;2022-08-03T07:55:52;1.98;;;1.40;;
45326;SDS011;31062;49.678;24.560;2022-08-03T07:58:38;2.05;;;1.58;;
45326;SDS011;31062;49.678;24.560;2022-08-03T08:01:24;2.97;;;2.40;;
45326;SDS011;31062;49.678;24.560;2022-08-03T08:04:10;2.92;;;1.33;;
45326;SDS011;31062;49.678;24.560;2022-08-03T08:06:56;1.77;;;1.45;;
45326;SDS011;31062;49.678;24.560;2022-08-03T08:09:42;1.50;;;1.40;;
45326;SDS011;31062;49.678;24.560;2022-08-03T08:12:28;1.60;;;1.30;;
45326;SDS011;31062;49.678;24.560;2022-08-03T08:15:14;5.57;;;1.30;;
45326;SDS011;31062;49.678;24.560;2022-08-03T08:18:01;1.98;;;1.70;;
45326;SDS011;31062;49.678;24.560;2022-08-03T08:20:49;2.00;;;1.13;;
45326;SDS011;31062;49.678;24.560;2022-08-03T08:23:36;3.20;;;1.40;;
45326;SDS011;31062;49.678;24.560;2022-08-03T08:26:29;3.45;;;1.63;;
45326;SDS011;31062;49.678;24.560;2022-08-03T08:29:15;1.67;;;1.55;;
45326;SDS011;31062;49.678;24.560;2022-08-03T08:32:01;1.50;;;1.40;;
45326;SDS011;31062;49.678;24.560;2022-08-03T08:34:47;2.97;;;1.55;;
45326;SDS011;31062;49.678;24.560;2022-08-03T08:37:33;2.13;;;1.60;;
45326;SDS011;31062;49.678;24.560;2022-08-03T08:40:23;2.27;;;1.50;;
45326;SDS011;31062;49.678;24.560;2022-08-03T08:43:10;4.35;;;1.50;;
45326;SDS011;31062;49.678;24.560;2022-08-03T08:45:56;2.95;;;1.17;;
45326;SDS011;31062;49.678;24.560;2022-08-03T08:48:44;3.08;;;1.33;;
45326;SDS011;31062;49.678;24.560;2022-08-03T08:51:32;3.67;;;1.83;;
45326;SDS011;31062;49.678;24.560;2022-08-03T08:54:43;2.38;;;1.52;;
45326;SDS011;31062;49.678;24.560;2022-08-03T08:57:34;8.65;;;1.63;;
45326;SDS011;31062;49.678;24.560;2022-08-03T09:00:27;2.15;;;1.90;;
45326;SDS011;31062;49.678;24.560;2022-08-03T09:03:16;4.28;;;1.70;;
45326;SDS011;31062;49.678;24.560;2022-08-03T09:06:14;6.40;;;1.60;;
45326;SDS011;31062;49.678;24.560;2022-08-03T09:09:01;1.60;;;1.50;;
45326;SDS011;31062;49.678;24.560;2022-08-03T09:11:47;3.15;;;1.20;;
45326;SDS011;31062;49.678;24.560;2022-08-03T09:17:56;4.72;;;1.30;;
45326;SDS011;31062;49.678;24.560;2022-08-03T09:20:44;2.13;;;1.00;;
45326;SDS011;31062;49.678;24.560;2022-08-03T09:23:42;1.17;;;0.98;;
45326;SDS011;31062;49.678;24.560;2022-08-03T09:26:48;3.97;;;1.35;;
45326;SDS011;31062;49.678;24.560;2022-08-03T09:29:37;1.30;;;1.20;;
45326;SDS011;31062;49.678;24.560;2022-08-03T09:32:23;2.75;;;1.20;;
45326;SDS011;31062;49.678;24.560;2022-08-03T09:35:11;2.38;;;1.30;;
45326;SDS011;31062;49.678;24.560;2022-08-03T09:38:08;1.50;;;1.40;;
45326;SDS011;31062;49.678;24.560;2022-08-03T09:41:03;2.05;;;1.30;;
45326;SDS011;31062;49.678;24.560;2022-08-03T09:44:03;1.20;;;1.10;;
45326;SDS011;31062;49.678;24.560;2022-08-03T09:46:50;2.33;;;1.27;;
45326;SDS011;31062;49.678;24.560;2022-08-03T09:49:42;2.08;;;0.95;;
45326;SDS011;31062;49.678;24.560;2022-08-03T09:52:42;1.00;;;1.00;;
45326;SDS011;31062;49.678;24.560;2022-08-03T09:55:37;3.65;;;1.00;;
45326;SDS011;31062;49.678;24.560;2022-08-03T09:58:46;1.48;;;1.02;;
45326;SDS011;31062;49.678;24.560;2022-08-03T10:01:33;2.28;;;1.10;;
45326;SDS011;31062;49.678;24.560;2022-08-03T10:04:19;4.70;;;1.30;;
45326;SDS011;31062;49.678;24.560;2022-08-03T10:07:07;1.10;;;1.10;;
45326;SDS011;31062;49.678;24.560;2022-08-03T10:09:56;4.30;;;2.13;;
45326;SDS011;31062;49.678;24.560;2022-08-03T10:13:04;1.65;;;1.00;;
45326;SDS011;31062;49.678;24.560;2022-08-03T10:15:50;3.60;;;1.10;;
45326;SDS011;31062;49.678;24.560;2022-08-03T10:18:56;1.25;;;1.17;;
45326;SDS011;31062;49.678;24.560;2022-08-03T10:21:49;1.48;;;1.02;;
45326;SDS011;31062;49.678;24.560;2022-08-03T10:24:48;0.80;;;0.80;;
45326;SDS011;31062;49.678;24.560;2022-08-03T10:27:41;3.13;;;1.00;;
45326;SDS011;31062;49.678;24.560;2022-08-03T10:30:32;1.73;;;1.20;;
45326;SDS011;31062;49.678;24.560;2022-08-03T10:33:23;3.30;;;1.40;;
45326;SDS011;31062;49.678;24.560;2022-08-03T10:36:32;1.00;;;1.00;;
45326;SDS011;31062;49.678;24.560;2022-08-03T10:39:21;1.83;;;1.00;;
45326;SDS011;31062;49.678;24.560;2022-08-03T10:42:09;0.85;;;0.85;;
45326;SDS011;31062;49.678;24.560;2022-08-03T10:45:04;0.93;;;0.93;;
45326;SDS011;31062;49.678;24.560;2022-08-03T10:48:04;0.70;;;0.70;;
45326;SDS011;31062;49.678;24.560;2022-08-03T10:50:52;2.40;;;0.70;;
45326;SDS011;31062;49.678;24.560;2022-08-03T10:53:40;0.90;;;0.90;;
45326;SDS011;31062;49.678;24.560;2022-08-03T10:56:40;1.67;;;0.80;;
45326;SDS011;31062;49.678;24.560;2022-08-03T10:59:59;0.80;;;0.80;;
45326;SDS011;31062;49.678;24.560;2022-08-03T11:03:05;0.60;;;0.60;;
45326;SDS011;31062;49.678;24.560;2022-08-03T11:06:16;0.88;;;0.70;;
45326;SDS011;31062;49.678;24.560;2022-08-03T11:11:55;1.10;;;0.70;;
45326;SDS011;31062;49.678;24.560;2022-08-03T11:14:46;1.38;;;1.15;;
45326;SDS011;31062;49.678;24.560;2022-08-03T11:17:34;1.27;;;0.80;;
45326;SDS011;31062;49.678;24.560;2022-08-03T11:23:42;3.33;;;0.90;;
45326;SDS011;31062;49.678;24.560;2022-08-03T11:27:00;1.40;;;0.80;;
45326;SDS011;31062;49.678;24.560;2022-08-03T11:33:02;1.95;;;0.60;;
45326;SDS011;31062;49.678;24.560;2022-08-03T11:35:59;0.73;;;0.70;;
45326;SDS011;31062;49.678;24.560;2022-08-03T11:42:12;1.17;;;0.60;;
45326;SDS011;31062;49.678;24.560;2022-08-03T11:45:08;0.77;;;0.77;;
45326;SDS011;31062;49.678;24.560;2022-08-03T11:47:57;2.08;;;0.60;;
45326;SDS011;31062;49.678;24.560;2022-08-03T11:50:48;0.50;;;0.50;;
45326;SDS011;31062;49.678;24.560;2022-08-03T11:53:34;2.83;;;0.50;;
45326;SDS011;31062;49.678;24.560;2022-08-03T11:56:27;0.82;;;0.82;;
45326;SDS011;31062;49.678;24.560;2022-08-03T11:59:14;0.73;;;0.68;;
45326;SDS011;31062;49.678;24.560;2022-08-03T12:07:44;2.30;;;0.70;;
45326;SDS011;31062;49.678;24.560;2022-08-03T12:10:50;0.52;;;0.40;;
45326;SDS011;31062;49.678;24.560;2022-08-03T12:13:40;0.80;;;0.80;;
45326;SDS011;31062;49.678;24.560;2022-08-03T12:16:48;0.52;;;0.52;;
45326;SDS011;31062;49.678;24.560;2022-08-03T12:19:41;0.50;;;0.50;;
45326;SDS011;31062;49.678;24.560;2022-08-03T12:22:35;0.50;;;0.30;;
45326;SDS011;31062;49.678;24.560;2022-08-03T12:25:25;0.65;;;0.65;;
45326;SDS011;31062;49.678;24.560;2022-08-03T12:28:24;2.17;;;0.60;;
45326;SDS011;31062;49.678;24.560;2022-08-03T12:31:24;0.47;;;0.47;;
45326;SDS011;31062;49.678;24.560;2022-08-03T12:34:13;1.23;;;0.80;;
45326;SDS011;31062;49.678;24.560;2022-08-03T12:37:03;0.73;;;0.60;;
45326;SDS011;31062;49.678;24.560;2022-08-03T12:40:10;2.53;;;0.70;;
45326;SDS011;31062;49.678;24.560;2022-08-03T12:43:12;0.68;;;0.68;;
45326;SDS011;31062;49.678;24.560;2022-08-03T12:46:11;3.05;;;0.73;;
45326;SDS011;31062;49.678;24.560;2022-08-03T12:54:36;2.15;;;0.73;;
45326;SDS011;31062;49.678;24.560;2022-08-03T12:57:22;2.85;;;0.70;;
45326;SDS011;31062;49.678;24.560;2022-08-03T13:00:09;0.70;;;0.70;;
45326;SDS011;31062;49.678;24.560;2022-08-03T13:03:06;1.17;;;0.60;;
45326;SDS011;31062;49.678;24.560;2022-08-03T13:06:13;0.70;;;0.70;;
45326;SDS011;31062;49.678;24.560;2022-08-03T13:09:02;0.85;;;0.77;;
45326;SDS011;31062;49.678;24.560;2022-08-03T13:12:03;0.65;;;0.65;;
45326;SDS011;31062;49.678;24.560;2022-08-03T13:14:54;1.85;;;0.70;;
45326;SDS011;31062;49.678;24.560;2022-08-03T13:17:41;1.85;;;0.90;;
45326;SDS011;31062;49.678;24.560;2022-08-03T13:20:28;1.65;;;1.00;;
45326;SDS011;31062;49.678;24.560;2022-08-03T13:23:15;2.38;;;0.80;;
45326;SDS011;31062;49.678;24.560;2022-08-03T13:26:08;1.88;;;1.13;;
45326;SDS011;31062;49.678;24.560;2022-08-03T13:28:55;1.67;;;0.95;;
45326;SDS011;31062;49.678;24.560;2022-08-03T13:31:41;4.55;;;1.00;;
45326;SDS011;31062;49.678;24.560;2022-08-03T13:34:35;7.85;;;2.33;;
45326;SDS011;31062;49.678;24.560;2022-08-03T13:37:23;0.90;;;0.90;;
45326;SDS011;31062;49.678;24.560;2022-08-03T13:40:10;1.17;;;0.80;;
45326;SDS011;31062;49.678;24.560;2022-08-03T13:42:59;1.08;;;0.98;;
45326;SDS011;31062;49.678;24.560;2022-08-03T13:45:46;1.65;;;0.90;;
45326;SDS011;31062;49.678;24.560;2022-08-03T13:48:39;3.42;;;0.77;;
45326;SDS011;31062;49.678;24.560;2022-08-03T13:51:26;0.90;;;0.90;;
45326;SDS011;31062;49.678;24.560;2022-08-03T13:54:12;0.75;;;0.75;;
45326;SDS011;31062;49.678;24.560;2022-08-03T13:56:58;1.23;;;0.98;;
45326;SDS011;31062;49.678;24.560;2022-08-03T14:00:04;0.93;;;0.80;;
45326;SDS011;31062;49.678;24.560;2022-08-03T14:02:51;0.93;;;0.80;;
45326;SDS011;31062;49.678;24.560;2022-08-03T14:05:47;1.98;;;0.98;;
45326;SDS011;31062;49.678;24.560;2022-08-03T14:08:33;4.72;;;0.98;;
45326;SDS011;31062;49.678;24.560;2022-08-03T14:11:20;1.55;;;0.90;;
45326;SDS011;31062;49.678;24.560;2022-08-03T14:14:07;2.47;;;0.73;;
45326;SDS011;31062;49.678;24.560;2022-08-03T14:16:54;0.93;;;0.93;;
45326;SDS011;31062;49.678;24.560;2022-08-03T14:19:40;1.77;;;0.85;;
45326;SDS011;31062;49.678;24.560;2022-08-03T14:22:39;2.30;;;0.70;;
45326;SDS011;31062;49.678;24.560;2022-08-03T14:25:26;2.20;;;0.90;;
45326;SDS011;31062;49.678;24.560;2022-08-03T14:28:12;2.70;;;1.25;;
45326;SDS011;31062;49.678;24.560;2022-08-03T14:30:58;0.88;;;0.88;;
45326;SDS011;31062;49.678;24.560;2022-08-03T14:33:44;1.10;;;1.00;;
45326;SDS011;31062;49.678;24.560;2022-08-03T14:36:31;0.80;;;0.80;;
45326;SDS011;31062;49.678;24.560;2022-08-03T14:39:16;3.10;;;1.30;;
45326;SDS011;31062;49.678;24.560;2022-08-03T14:42:02;0.73;;;0.73;;
45326;SDS011;31062;49.678;24.560;2022-08-03T14:44:48;5.85;;;1.02;;
45326;SDS011;31062;49.678;24.560;2022-08-03T14:47:35;4.45;;;1.27;;
45326;SDS011;31062;49.678;24.560;2022-08-03T14:50:41;1.38;;;1.13;;
45326;SDS011;31062;49.678;24.560;2022-08-03T14:53:35;2.08;;;1.30;;
45326;SDS011;31062;49.678;24.560;2022-08-03T14:56:22;0.73;;;0.73;;
45326;SDS011;31062;49.678;24.560;2022-08-03T14:59:08;0.93;;;0.82;;
45326;SDS011;31062;49.678;24.560;2022-08-03T15:01:53;3.60;;;1.00;;
45326;SDS011;31062;49.678;24.560;2022-08-03T15:04:51;1.35;;;1.02;;
45326;SDS011;31062;49.678;24.560;2022-08-03T15:07:37;1.35;;;0.90;;
45326;SDS011;31062;49.678;24.560;2022-08-03T15:10:23;1.20;;;0.98;;
45326;SDS011;31062;49.678;24.560;2022-08-03T15:13:28;3.80;;;1.00;;
45326;SDS011;31062;49.678;24.560;2022-08-03T15:16:14;3.72;;;0.73;;
45326;SDS011;31062;49.678;24.560;2022-08-03T15:19:00;0.70;;;0.70;;
45326;SDS011;31062;49.678;24.560;2022-08-03T15:21:48;1.45;;;0.57;;
45326;SDS011;31062;49.678;24.560;2022-08-03T15:24:35;1.08;;;0.80;;
45326;SDS011;31062;49.678;24.560;2022-08-03T15:27:21;0.70;;;0.57;;
45326;SDS011;31062;49.678;24.560;2022-08-03T15:30:07;1.10;;;0.70;;
45326;SDS011;31062;49.678;24.560;2022-08-03T15:32:54;0.88;;;0.73;;
45326;SDS011;31062;49.678;24.560;2022-08-03T15:35:40;3.08;;;0.80;;
45326;SDS011;31062;49.678;24.560;2022-08-03T15:38:26;4.90;;;1.00;;
45326;SDS011;31062;49.678;24.560;2022-08-03T15:41:12;2.83;;;0.73;;
45326;SDS011;31062;49.678;24.560;2022-08-03T15:44:00;1.05;;;0.70;;
45326;SDS011;31062;49.678;24.560;2022-08-03T15:46:53;2.05;;;0.95;;
45326;SDS011;31062;49.678;24.560;2022-08-03T15:49:39;2.00;;;0.80;;
45326;SDS011;31062;49.678;24.560;2022-08-03T15:52:25;0.50;;;0.47;;
45326;SDS011;31062;49.678;24.560;2022-08-03T15:55:13;4.07;;;0.70;;
45326;SDS011;31062;49.678;24.560;2022-08-03T15:58:02;0.90;;;0.90;;
45326;SDS011;31062;49.678;24.560;2022-08-03T16:01:07;0.60;;;0.60;;
45326;SDS011;31062;49.678;24.560;2022-08-03T16:03:54;0.80;;;0.70;;
45326;SDS011;31062;49.678;24.560;2022-08-03T16:06:40;0.98;;;0.68;;
45326;SDS011;31062;49.678;24.560;2022-08-03T16:09:25;3.30;;;0.70;;
45326;SDS011;31062;49.678;24.560;2022-08-03T16:12:29;4.78;;;0.90;;
45326;SDS011;31062;49.678;24.560;2022-08-03T16:15:16;1.73;;;0.73;;
45326;SDS011;31062;49.678;24.560;2022-08-03T16:18:02;2.15;;;1.20;;
45326;SDS011;31062;49.678;24.560;2022-08-03T16:20:49;0.98;;;0.95;;
45326;SDS011;31062;49.678;24.560;2022-08-03T16:23:36;2.15;;;1.05;;
45326;SDS011;31062;49.678;24.560;2022-08-03T16:26:27;1.27;;;0.80;;
45326;SDS011;31062;49.678;24.560;2022-08-03T16:29:19;2.03;;;0.93;;
45326;SDS011;31062;49.678;24.560;2022-08-03T16:32:09;1.60;;;0.90;;
45326;SDS011;31062;49.678;24.560;2022-08-03T16:34:55;3.10;;;1.10;;
45326;SDS011;31062;49.678;24.560;2022-08-03T16:37:41;2.90;;;1.00;;
45326;SDS011;31062;49.678;24.560;2022-08-03T16:40:41;0.85;;;0.80;;
45326;SDS011;31062;49.678;24.560;2022-08-03T16:43:27;2.42;;;0.95;;
45326;SDS011;31062;49.678;24.560;2022-08-03T16:46:13;1.05;;;0.77;;
45326;SDS011;31062;49.678;24.560;2022-08-03T16:48:59;1.88;;;0.75;;
45326;SDS011;31062;49.678;24.560;2022-08-03T16:51:46;2.03;;;1.00;;
45326;SDS011;31062;49.678;24.560;2022-08-03T16:54:37;2.28;;;1.88;;
45326;SDS011;31062;49.678;24.560;2022-08-03T16:57:26;5.13;;;0.95;;
45326;SDS011;31062;49.678;24.560;2022-08-03T17:00:33;1.25;;;0.90;;
45326;SDS011;31062;49.678;24.560;2022-08-03T17:03:26;7.95;;;1.08;;
45326;SDS011;31062;49.678;24.560;2022-08-03T17:06:26;1.73;;;1.13;;
45326;SDS011;31062;49.678;24.560;2022-08-03T17:09:20;4.78;;;1.42;;
45326;SDS011;31062;49.678;24.560;2022-08-03T17:12:07;6.38;;;1.33;;
45326;SDS011;31062;49.678;24.560;2022-08-03T17:14:56;5.72;;;1.33;;
45326;SDS011;31062;49.678;24.560;2022-08-03T17:17:55;2.83;;;1.05;;
45326;SDS011;31062;49.678;24.560;2022-08-03T17:20:58;1.83;;;0.98;;
45326;SDS011;31062;49.678;24.560;2022-08-03T17:26:58;3.95;;;1.00;;
45326;SDS011;31062;49.678;24.560;2022-08-03T17:29:47;1.15;;;0.80;;
45326;SDS011;31062;49.678;24.560;2022-08-03T17:32:37;4.03;;;0.80;;
45326;SDS011;31062;49.678;24.560;2022-08-03T17:35:37;1.98;;;1.35;;